Dillon, Montana
Current Conditions -  °F | °C
As of 10:53 PM on Saturday 20 Dec 2014 (Local Time) from KDLN Reporting Station
Scattered Clouds Scattered Clouds  
Wind Chill: 30°   Ceiling: Unl
Heat Index: 37°   Visibility: 10mi
Dew Point: 26°   Wind: 9mph
Humidity: 65%   Direction: 190°S
Pressure: 29.71"   Gusts: NA
Location:  45.22°N, 112.64°W
Report Text: KDLN 210553Z AUTO 19008KT 10SM SCT060 03/M03 A2971 RMK AO2 SLP072 T00281033 10033 20006 58015
Loading
Personal Weather Stations






























Interactive Weather Map New forecast layout! Learn more

10-Day Weather Forecast

Advertisements
Track Severe Weather on mobile